sensor_id;sensor_type;location;lat;lon;timestamp;P1;durP1;ratioP1;P2;durP2;ratioP2
18142;SDS011;9197;50.930;3.140;2022-11-20T00:00:49;39.77;;;24.97;;
18142;SDS011;9197;50.930;3.140;2022-11-20T00:03:16;38.47;;;23.40;;
18142;SDS011;9197;50.930;3.140;2022-11-20T00:05:44;46.90;;;27.27;;
18142;SDS011;9197;50.930;3.140;2022-11-20T00:08:12;42.90;;;24.83;;
18142;SDS011;9197;50.930;3.140;2022-11-20T00:10:39;41.67;;;22.53;;
18142;SDS011;9197;50.930;3.140;2022-11-20T00:13:07;40.13;;;23.70;;
18142;SDS011;9197;50.930;3.140;2022-11-20T00:15:34;38.60;;;23.33;;
18142;SDS011;9197;50.930;3.140;2022-11-20T00:18:01;42.97;;;24.53;;
18142;SDS011;9197;50.930;3.140;2022-11-20T00:20:28;37.47;;;23.27;;
18142;SDS011;9197;50.930;3.140;2022-11-20T00:22:57;42.17;;;23.03;;
18142;SDS011;9197;50.930;3.140;2022-11-20T00:25:24;37.63;;;23.40;;
18142;SDS011;9197;50.930;3.140;2022-11-20T00:27:51;37.63;;;23.17;;
18142;SDS011;9197;50.930;3.140;2022-11-20T00:30:18;37.23;;;23.93;;
18142;SDS011;9197;50.930;3.140;2022-11-20T00:32:46;44.00;;;25.13;;
18142;SDS011;9197;50.930;3.140;2022-11-20T00:35:13;41.63;;;25.03;;
18142;SDS011;9197;50.930;3.140;2022-11-20T00:37:40;48.20;;;26.47;;
18142;SDS011;9197;50.930;3.140;2022-11-20T00:40:09;44.27;;;25.97;;
18142;SDS011;9197;50.930;3.140;2022-11-20T00:42:36;45.47;;;24.53;;
18142;SDS011;9197;50.930;3.140;2022-11-20T00:45:04;39.00;;;23.80;;
18142;SDS011;9197;50.930;3.140;2022-11-20T00:47:32;45.40;;;27.57;;
18142;SDS011;9197;50.930;3.140;2022-11-20T00:49:59;40.40;;;25.70;;
18142;SDS011;9197;50.930;3.140;2022-11-20T00:52:26;45.37;;;24.67;;
18142;SDS011;9197;50.930;3.140;2022-11-20T00:54:53;47.60;;;26.77;;
18142;SDS011;9197;50.930;3.140;2022-11-20T00:57:22;47.73;;;26.70;;
18142;SDS011;9197;50.930;3.140;2022-11-20T00:59:49;51.67;;;27.00;;
18142;SDS011;9197;50.930;3.140;2022-11-20T01:02:16;47.90;;;27.10;;
18142;SDS011;9197;50.930;3.140;2022-11-20T01:04:43;45.50;;;27.53;;
18142;SDS011;9197;50.930;3.140;2022-11-20T01:07:10;47.03;;;26.43;;
18142;SDS011;9197;50.930;3.140;2022-11-20T01:09:37;49.40;;;29.30;;
18142;SDS011;9197;50.930;3.140;2022-11-20T01:12:05;58.43;;;30.20;;
18142;SDS011;9197;50.930;3.140;2022-11-20T01:14:33;52.83;;;30.00;;
18142;SDS011;9197;50.930;3.140;2022-11-20T01:17:00;51.47;;;28.70;;
18142;SDS011;9197;50.930;3.140;2022-11-20T01:19:27;55.03;;;30.67;;
18142;SDS011;9197;50.930;3.140;2022-11-20T01:21:55;52.20;;;29.00;;
18142;SDS011;9197;50.930;3.140;2022-11-20T01:24:22;58.13;;;29.67;;
18142;SDS011;9197;50.930;3.140;2022-11-20T01:26:50;53.43;;;30.13;;
18142;SDS011;9197;50.930;3.140;2022-11-20T01:29:18;55.43;;;31.10;;
18142;SDS011;9197;50.930;3.140;2022-11-20T01:31:47;54.90;;;30.83;;
18142;SDS011;9197;50.930;3.140;2022-11-20T01:34:15;56.20;;;29.47;;
18142;SDS011;9197;50.930;3.140;2022-11-20T01:36:43;58.77;;;31.50;;
18142;SDS011;9197;50.930;3.140;2022-11-20T01:39:11;58.70;;;31.60;;
18142;SDS011;9197;50.930;3.140;2022-11-20T01:41:39;59.47;;;32.60;;
18142;SDS011;9197;50.930;3.140;2022-11-20T01:47:07;60.17;;;30.57;;
18142;SDS011;9197;50.930;3.140;2022-11-20T01:49:36;61.67;;;32.80;;
18142;SDS011;9197;50.930;3.140;2022-11-20T01:52:05;71.27;;;34.27;;
18142;SDS011;9197;50.930;3.140;2022-11-20T01:54:34;76.13;;;36.43;;
18142;SDS011;9197;50.930;3.140;2022-11-20T01:57:02;71.63;;;34.23;;
18142;SDS011;9197;50.930;3.140;2022-11-20T01:59:31;78.40;;;35.40;;
18142;SDS011;9197;50.930;3.140;2022-11-20T02:01:58;79.83;;;37.97;;
18142;SDS011;9197;50.930;3.140;2022-11-20T02:04:27;78.90;;;37.70;;
18142;SDS011;9197;50.930;3.140;2022-11-20T02:06:55;79.87;;;38.37;;
18142;SDS011;9197;50.930;3.140;2022-11-20T02:09:24;81.03;;;39.43;;
18142;SDS011;9197;50.930;3.140;2022-11-20T02:11:52;79.50;;;41.40;;
18142;SDS011;9197;50.930;3.140;2022-11-20T02:14:19;81.70;;;37.87;;
18142;SDS011;9197;50.930;3.140;2022-11-20T02:16:47;80.03;;;37.97;;
18142;SDS011;9197;50.930;3.140;2022-11-20T02:19:17;84.63;;;39.87;;
18142;SDS011;9197;50.930;3.140;2022-11-20T02:21:49;85.60;;;38.30;;
18142;SDS011;9197;50.930;3.140;2022-11-20T02:24:19;77.50;;;39.70;;
18142;SDS011;9197;50.930;3.140;2022-11-20T02:26:47;83.20;;;40.53;;
18142;SDS011;9197;50.930;3.140;2022-11-20T02:29:16;83.97;;;40.47;;
18142;SDS011;9197;50.930;3.140;2022-11-20T02:31:44;84.17;;;40.97;;
18142;SDS011;9197;50.930;3.140;2022-11-20T02:34:12;82.43;;;39.27;;
18142;SDS011;9197;50.930;3.140;2022-11-20T02:36:39;87.33;;;40.20;;
18142;SDS011;9197;50.930;3.140;2022-11-20T02:39:08;88.17;;;41.40;;
18142;SDS011;9197;50.930;3.140;2022-11-20T02:41:38;92.77;;;40.50;;
18142;SDS011;9197;50.930;3.140;2022-11-20T02:44:05;93.83;;;40.70;;
18142;SDS011;9197;50.930;3.140;2022-11-20T02:46:32;86.03;;;39.90;;
18142;SDS011;9197;50.930;3.140;2022-11-20T02:49:00;93.73;;;40.57;;
18142;SDS011;9197;50.930;3.140;2022-11-20T02:51:28;89.23;;;41.10;;
18142;SDS011;9197;50.930;3.140;2022-11-20T02:53:55;94.50;;;41.97;;
18142;SDS011;9197;50.930;3.140;2022-11-20T02:56:22;97.27;;;42.60;;
18142;SDS011;9197;50.930;3.140;2022-11-20T02:58:51;90.53;;;40.50;;
18142;SDS011;9197;50.930;3.140;2022-11-20T03:01:18;86.80;;;39.50;;
18142;SDS011;9197;50.930;3.140;2022-11-20T03:03:45;93.23;;;39.90;;
18142;SDS011;9197;50.930;3.140;2022-11-20T03:06:13;96.70;;;41.30;;
18142;SDS011;9197;50.930;3.140;2022-11-20T03:08:41;86.47;;;39.10;;
18142;SDS011;9197;50.930;3.140;2022-11-20T03:11:08;91.43;;;40.17;;
18142;SDS011;9197;50.930;3.140;2022-11-20T03:13:35;92.37;;;41.07;;
18142;SDS011;9197;50.930;3.140;2022-11-20T03:16:08;89.50;;;41.10;;
18142;SDS011;9197;50.930;3.140;2022-11-20T03:18:36;83.83;;;38.60;;
18142;SDS011;9197;50.930;3.140;2022-11-20T03:21:04;82.33;;;39.50;;
18142;SDS011;9197;50.930;3.140;2022-11-20T03:23:31;85.90;;;40.27;;
18142;SDS011;9197;50.930;3.140;2022-11-20T03:26:08;87.97;;;40.57;;
18142;SDS011;9197;50.930;3.140;2022-11-20T03:28:36;95.10;;;49.90;;
18142;SDS011;9197;50.930;3.140;2022-11-20T03:31:11;101.90;;;49.13;;
18142;SDS011;9197;50.930;3.140;2022-11-20T03:33:38;87.10;;;42.13;;
18142;SDS011;9197;50.930;3.140;2022-11-20T03:36:07;103.03;;;53.03;;
18142;SDS011;9197;50.930;3.140;2022-11-20T03:38:34;86.60;;;40.67;;
18142;SDS011;9197;50.930;3.140;2022-11-20T03:41:02;88.77;;;40.07;;
18142;SDS011;9197;50.930;3.140;2022-11-20T03:43:29;92.70;;;40.97;;
18142;SDS011;9197;50.930;3.140;2022-11-20T03:45:56;220.97;;;131.37;;
18142;SDS011;9197;50.930;3.140;2022-11-20T03:48:25;111.67;;;50.47;;
18142;SDS011;9197;50.930;3.140;2022-11-20T03:50:53;102.10;;;50.83;;
18142;SDS011;9197;50.930;3.140;2022-11-20T03:53:20;91.13;;;38.43;;
18142;SDS011;9197;50.930;3.140;2022-11-20T03:55:50;86.37;;;40.87;;
18142;SDS011;9197;50.930;3.140;2022-11-20T03:58:17;92.03;;;39.30;;
18142;SDS011;9197;50.930;3.140;2022-11-20T04:00:45;84.30;;;40.53;;
18142;SDS011;9197;50.930;3.140;2022-11-20T04:03:12;90.80;;;37.97;;
18142;SDS011;9197;50.930;3.140;2022-11-20T04:05:41;100.00;;;40.43;;
18142;SDS011;9197;50.930;3.140;2022-11-20T04:08:08;88.47;;;37.87;;
18142;SDS011;9197;50.930;3.140;2022-11-20T04:10:35;87.53;;;39.47;;
18142;SDS011;9197;50.930;3.140;2022-11-20T04:13:02;91.30;;;38.30;;
18142;SDS011;9197;50.930;3.140;2022-11-20T04:15:30;90.60;;;39.73;;
18142;SDS011;9197;50.930;3.140;2022-11-20T04:17:57;86.17;;;37.50;;
18142;SDS011;9197;50.930;3.140;2022-11-20T04:20:24;97.87;;;39.33;;
18142;SDS011;9197;50.930;3.140;2022-11-20T04:22:54;99.43;;;39.30;;
18142;SDS011;9197;50.930;3.140;2022-11-20T04:25:21;97.33;;;42.90;;
18142;SDS011;9197;50.930;3.140;2022-11-20T04:27:48;84.87;;;38.63;;
18142;SDS011;9197;50.930;3.140;2022-11-20T04:30:15;84.43;;;38.63;;
18142;SDS011;9197;50.930;3.140;2022-11-20T04:32:42;83.10;;;39.50;;
18142;SDS011;9197;50.930;3.140;2022-11-20T04:35:09;92.67;;;36.07;;
18142;SDS011;9197;50.930;3.140;2022-11-20T04:37:37;88.73;;;38.83;;
18142;SDS011;9197;50.930;3.140;2022-11-20T04:40:06;96.03;;;36.07;;
18142;SDS011;9197;50.930;3.140;2022-11-20T04:42:33;88.97;;;34.67;;
18142;SDS011;9197;50.930;3.140;2022-11-20T04:45:00;84.40;;;36.40;;
18142;SDS011;9197;50.930;3.140;2022-11-20T04:47:27;80.53;;;31.60;;
18142;SDS011;9197;50.930;3.140;2022-11-20T04:49:54;85.27;;;35.43;;
18142;SDS011;9197;50.930;3.140;2022-11-20T04:52:22;83.23;;;36.33;;
18142;SDS011;9197;50.930;3.140;2022-11-20T04:54:49;89.00;;;36.07;;
18142;SDS011;9197;50.930;3.140;2022-11-20T04:57:19;76.40;;;33.47;;
18142;SDS011;9197;50.930;3.140;2022-11-20T04:59:46;78.40;;;34.93;;
18142;SDS011;9197;50.930;3.140;2022-11-20T05:02:13;70.83;;;32.20;;
18142;SDS011;9197;50.930;3.140;2022-11-20T05:04:41;76.30;;;32.57;;
18142;SDS011;9197;50.930;3.140;2022-11-20T05:07:08;73.67;;;31.27;;
18142;SDS011;9197;50.930;3.140;2022-11-20T05:09:35;75.30;;;32.23;;
18142;SDS011;9197;50.930;3.140;2022-11-20T05:12:02;73.23;;;33.10;;
18142;SDS011;9197;50.930;3.140;2022-11-20T05:14:31;75.23;;;32.37;;
18142;SDS011;9197;50.930;3.140;2022-11-20T05:16:58;84.73;;;33.00;;
18142;SDS011;9197;50.930;3.140;2022-11-20T05:19:25;79.23;;;33.37;;
18142;SDS011;9197;50.930;3.140;2022-11-20T05:21:52;79.13;;;33.03;;
18142;SDS011;9197;50.930;3.140;2022-11-20T05:24:20;81.90;;;33.00;;
18142;SDS011;9197;50.930;3.140;2022-11-20T05:26:47;76.73;;;32.57;;
18142;SDS011;9197;50.930;3.140;2022-11-20T05:29:14;105.07;;;36.33;;
18142;SDS011;9197;50.930;3.140;2022-11-20T05:31:42;91.10;;;34.23;;
18142;SDS011;9197;50.930;3.140;2022-11-20T05:34:10;82.90;;;35.33;;
18142;SDS011;9197;50.930;3.140;2022-11-20T05:36:37;91.30;;;35.87;;
18142;SDS011;9197;50.930;3.140;2022-11-20T05:39:04;102.63;;;36.93;;
18142;SDS011;9197;50.930;3.140;2022-11-20T05:41:32;86.07;;;38.17;;
18142;SDS011;9197;50.930;3.140;2022-11-20T05:43:59;94.03;;;38.40;;
18142;SDS011;9197;50.930;3.140;2022-11-20T05:46:26;88.17;;;35.73;;
18142;SDS011;9197;50.930;3.140;2022-11-20T05:48:55;92.37;;;39.57;;
18142;SDS011;9197;50.930;3.140;2022-11-20T05:51:24;79.33;;;36.83;;
18142;SDS011;9197;50.930;3.140;2022-11-20T05:53:51;76.37;;;34.20;;
18142;SDS011;9197;50.930;3.140;2022-11-20T05:56:19;74.73;;;34.27;;
18142;SDS011;9197;50.930;3.140;2022-11-20T05:58:46;80.50;;;33.73;;
18142;SDS011;9197;50.930;3.140;2022-11-20T06:01:15;79.70;;;34.47;;
18142;SDS011;9197;50.930;3.140;2022-11-20T06:03:42;76.33;;;33.77;;
18142;SDS011;9197;50.930;3.140;2022-11-20T06:06:13;76.83;;;34.33;;
18142;SDS011;9197;50.930;3.140;2022-11-20T06:08:41;81.90;;;32.53;;
18142;SDS011;9197;50.930;3.140;2022-11-20T06:11:09;74.93;;;32.57;;
18142;SDS011;9197;50.930;3.140;2022-11-20T06:13:36;76.43;;;32.00;;
18142;SDS011;9197;50.930;3.140;2022-11-20T06:16:04;79.13;;;32.23;;
18142;SDS011;9197;50.930;3.140;2022-11-20T06:18:32;78.23;;;31.77;;
18142;SDS011;9197;50.930;3.140;2022-11-20T06:21:00;80.07;;;30.70;;
18142;SDS011;9197;50.930;3.140;2022-11-20T06:23:29;73.67;;;30.90;;
18142;SDS011;9197;50.930;3.140;2022-11-20T06:25:56;81.77;;;33.00;;
18142;SDS011;9197;50.930;3.140;2022-11-20T06:28:23;71.90;;;28.40;;
18142;SDS011;9197;50.930;3.140;2022-11-20T06:30:51;74.03;;;30.60;;
18142;SDS011;9197;50.930;3.140;2022-11-20T06:33:18;73.20;;;30.33;;
18142;SDS011;9197;50.930;3.140;2022-11-20T06:35:45;76.37;;;31.57;;
18142;SDS011;9197;50.930;3.140;2022-11-20T06:38:12;82.97;;;33.23;;
18142;SDS011;9197;50.930;3.140;2022-11-20T06:40:41;75.63;;;32.77;;
18142;SDS011;9197;50.930;3.140;2022-11-20T06:43:08;72.90;;;31.00;;
18142;SDS011;9197;50.930;3.140;2022-11-20T06:45:35;75.57;;;30.10;;
18142;SDS011;9197;50.930;3.140;2022-11-20T06:48:03;77.20;;;31.47;;
18142;SDS011;9197;50.930;3.140;2022-11-20T06:50:30;78.53;;;32.07;;
18142;SDS011;9197;50.930;3.140;2022-11-20T06:53:00;73.27;;;30.37;;
18142;SDS011;9197;50.930;3.140;2022-11-20T06:55:27;73.70;;;30.80;;
18142;SDS011;9197;50.930;3.140;2022-11-20T06:57:56;90.23;;;32.73;;
18142;SDS011;9197;50.930;3.140;2022-11-20T07:00:23;83.33;;;35.30;;
18142;SDS011;9197;50.930;3.140;2022-11-20T07:02:51;90.60;;;35.60;;
18142;SDS011;9197;50.930;3.140;2022-11-20T07:05:18;94.00;;;35.73;;
18142;SDS011;9197;50.930;3.140;2022-11-20T07:07:45;104.13;;;38.27;;
18142;SDS011;9197;50.930;3.140;2022-11-20T07:10:12;93.77;;;37.10;;
18142;SDS011;9197;50.930;3.140;2022-11-20T07:12:39;95.57;;;36.63;;
18142;SDS011;9197;50.930;3.140;2022-11-20T07:15:08;102.97;;;37.97;;
18142;SDS011;9197;50.930;3.140;2022-11-20T07:17:35;106.00;;;36.57;;
18142;SDS011;9197;50.930;3.140;2022-11-20T07:20:02;98.37;;;39.67;;
18142;SDS011;9197;50.930;3.140;2022-11-20T07:22:30;111.30;;;37.13;;
18142;SDS011;9197;50.930;3.140;2022-11-20T07:24:57;98.50;;;38.03;;
18142;SDS011;9197;50.930;3.140;2022-11-20T07:27:24;99.67;;;36.80;;
18142;SDS011;9197;50.930;3.140;2022-11-20T07:29:51;89.23;;;34.27;;
18142;SDS011;9197;50.930;3.140;2022-11-20T07:32:20;85.23;;;35.00;;
18142;SDS011;9197;50.930;3.140;2022-11-20T07:34:47;90.90;;;35.53;;
18142;SDS011;9197;50.930;3.140;2022-11-20T07:37:14;83.37;;;35.37;;
18142;SDS011;9197;50.930;3.140;2022-11-20T07:39:41;78.73;;;36.00;;
18142;SDS011;9197;50.930;3.140;2022-11-20T07:42:09;85.50;;;37.13;;
18142;SDS011;9197;50.930;3.140;2022-11-20T07:44:37;74.40;;;35.17;;
18142;SDS011;9197;50.930;3.140;2022-11-20T07:47:04;70.60;;;33.57;;
18142;SDS011;9197;50.930;3.140;2022-11-20T07:49:33;69.20;;;33.27;;
18142;SDS011;9197;50.930;3.140;2022-11-20T07:52:00;75.87;;;36.33;;
18142;SDS011;9197;50.930;3.140;2022-11-20T07:54:27;78.87;;;35.53;;
18142;SDS011;9197;50.930;3.140;2022-11-20T07:56:54;62.37;;;31.40;;
18142;SDS011;9197;50.930;3.140;2022-11-20T07:59:21;76.33;;;35.80;;
18142;SDS011;9197;50.930;3.140;2022-11-20T08:01:49;74.20;;;35.57;;
18142;SDS011;9197;50.930;3.140;2022-11-20T08:04:16;66.97;;;34.03;;
18142;SDS011;9197;50.930;3.140;2022-11-20T08:06:44;67.60;;;32.97;;
18142;SDS011;9197;50.930;3.140;2022-11-20T08:09:11;64.07;;;30.90;;
18142;SDS011;9197;50.930;3.140;2022-11-20T08:11:38;57.97;;;31.33;;
18142;SDS011;9197;50.930;3.140;2022-11-20T08:14:23;64.73;;;29.70;;
18142;SDS011;9197;50.930;3.140;2022-11-20T08:16:52;64.47;;;30.10;;
18142;SDS011;9197;50.930;3.140;2022-11-20T08:19:19;66.67;;;29.60;;
18142;SDS011;9197;50.930;3.140;2022-11-20T08:21:48;54.90;;;26.50;;
18142;SDS011;9197;50.930;3.140;2022-11-20T08:24:15;54.20;;;28.10;;
18142;SDS011;9197;50.930;3.140;2022-11-20T08:26:42;54.30;;;30.50;;
18142;SDS011;9197;50.930;3.140;2022-11-20T08:29:09;62.77;;;28.47;;
18142;SDS011;9197;50.930;3.140;2022-11-20T08:31:36;50.97;;;27.27;;
18142;SDS011;9197;50.930;3.140;2022-11-20T08:34:03;56.30;;;28.07;;
18142;SDS011;9197;50.930;3.140;2022-11-20T08:36:32;59.17;;;28.90;;
18142;SDS011;9197;50.930;3.140;2022-11-20T08:39:02;45.43;;;24.90;;
18142;SDS011;9197;50.930;3.140;2022-11-20T08:41:29;51.10;;;27.83;;
18142;SDS011;9197;50.930;3.140;2022-11-20T08:43:58;48.07;;;27.47;;
18142;SDS011;9197;50.930;3.140;2022-11-20T08:46:27;45.53;;;24.90;;
18142;SDS011;9197;50.930;3.140;2022-11-20T08:48:54;46.67;;;26.87;;
18142;SDS011;9197;50.930;3.140;2022-11-20T08:51:21;46.53;;;24.87;;
18142;SDS011;9197;50.930;3.140;2022-11-20T08:53:48;42.57;;;24.47;;
18142;SDS011;9197;50.930;3.140;2022-11-20T08:56:17;44.40;;;23.57;;
18142;SDS011;9197;50.930;3.140;2022-11-20T08:58:44;41.40;;;24.77;;
18142;SDS011;9197;50.930;3.140;2022-11-20T09:01:11;40.03;;;23.33;;
18142;SDS011;9197;50.930;3.140;2022-11-20T09:03:38;43.40;;;22.83;;
18142;SDS011;9197;50.930;3.140;2022-11-20T09:06:06;33.33;;;20.60;;
18142;SDS011;9197;50.930;3.140;2022-11-20T09:08:34;37.30;;;20.13;;
18142;SDS011;9197;50.930;3.140;2022-11-20T09:11:02;30.20;;;19.07;;
18142;SDS011;9197;50.930;3.140;2022-11-20T09:13:31;35.03;;;18.57;;
18142;SDS011;9197;50.930;3.140;2022-11-20T09:15:59;30.07;;;18.03;;
18142;SDS011;9197;50.930;3.140;2022-11-20T09:18:27;29.93;;;17.30;;
18142;SDS011;9197;50.930;3.140;2022-11-20T09:20:56;25.87;;;16.10;;
18142;SDS011;9197;50.930;3.140;2022-11-20T09:23:24;29.20;;;15.07;;
18142;SDS011;9197;50.930;3.140;2022-11-20T09:25:52;25.03;;;14.47;;
18142;SDS011;9197;50.930;3.140;2022-11-20T09:28:20;20.60;;;12.13;;
18142;SDS011;9197;50.930;3.140;2022-11-20T09:30:49;12.87;;;9.03;;
18142;SDS011;9197;50.930;3.140;2022-11-20T09:33:16;16.80;;;9.87;;
18142;SDS011;9197;50.930;3.140;2022-11-20T09:35:44;13.87;;;8.43;;
18142;SDS011;9197;50.930;3.140;2022-11-20T09:38:11;10.63;;;7.40;;
18142;SDS011;9197;50.930;3.140;2022-11-20T09:40:39;11.37;;;6.70;;
18142;SDS011;9197;50.930;3.140;2022-11-20T09:43:11;7.03;;;6.33;;
18142;SDS011;9197;50.930;3.140;2022-11-20T09:45:44;8.07;;;5.10;;
18142;SDS011;9197;50.930;3.140;2022-11-20T09:48:24;7.70;;;4.83;;
18142;SDS011;9197;50.930;3.140;2022-11-20T09:50:57;7.27;;;4.10;;
18142;SDS011;9197;50.930;3.140;2022-11-20T09:53:30;7.57;;;4.50;;
18142;SDS011;9197;50.930;3.140;2022-11-20T09:56:01;7.33;;;4.00;;
18142;SDS011;9197;50.930;3.140;2022-11-20T09:58:31;7.90;;;3.63;;
18142;SDS011;9197;50.930;3.140;2022-11-20T10:01:03;3.13;;;2.83;;
18142;SDS011;9197;50.930;3.140;2022-11-20T10:03:37;5.87;;;3.37;;
18142;SDS011;9197;50.930;3.140;2022-11-20T10:06:04;6.13;;;3.40;;
18142;SDS011;9197;50.930;3.140;2022-11-20T10:08:34;5.03;;;2.97;;
18142;SDS011;9197;50.930;3.140;2022-11-20T10:11:04;8.03;;;2.77;;
18142;SDS011;9197;50.930;3.140;2022-11-20T10:13:35;3.80;;;3.43;;
18142;SDS011;9197;50.930;3.140;2022-11-20T10:16:10;2.77;;;2.57;;
18142;SDS011;9197;50.930;3.140;2022-11-20T10:18:44;5.43;;;2.90;;
18142;SDS011;9197;50.930;3.140;2022-11-20T10:21:17;4.30;;;3.00;;
18142;SDS011;9197;50.930;3.140;2022-11-20T10:23:53;6.57;;;3.17;;
18142;SDS011;9197;50.930;3.140;2022-11-20T10:26:25;6.30;;;2.80;;
18142;SDS011;9197;50.930;3.140;2022-11-20T10:28:56;4.63;;;2.90;;
18142;SDS011;9197;50.930;3.140;2022-11-20T10:31:30;4.83;;;3.70;;
18142;SDS011;9197;50.930;3.140;2022-11-20T10:34:02;6.37;;;3.97;;
18142;SDS011;9197;50.930;3.140;2022-11-20T10:36:32;4.57;;;4.00;;
18142;SDS011;9197;50.930;3.140;2022-11-20T10:39:06;10.07;;;5.10;;
18142;SDS011;9197;50.930;3.140;2022-11-20T10:41:39;12.60;;;8.40;;
18142;SDS011;9197;50.930;3.140;2022-11-20T10:44:09;9.53;;;7.07;;
18142;SDS011;9197;50.930;3.140;2022-11-20T10:46:39;7.57;;;5.40;;
18142;SDS011;9197;50.930;3.140;2022-11-20T10:49:15;9.67;;;6.17;;
18142;SDS011;9197;50.930;3.140;2022-11-20T10:51:47;8.93;;;4.93;;
18142;SDS011;9197;50.930;3.140;2022-11-20T10:54:17;4.83;;;4.10;;
18142;SDS011;9197;50.930;3.140;2022-11-20T10:56:47;10.03;;;4.50;;
18142;SDS011;9197;50.930;3.140;2022-11-20T10:59:24;8.97;;;4.93;;
18142;SDS011;9197;50.930;3.140;2022-11-20T11:01:54;11.13;;;6.13;;
18142;SDS011;9197;50.930;3.140;2022-11-20T11:04:28;8.07;;;5.60;;
18142;SDS011;9197;50.930;3.140;2022-11-20T11:06:58;6.13;;;5.13;;
18142;SDS011;9197;50.930;3.140;2022-11-20T11:09:30;8.47;;;5.30;;
18142;SDS011;9197;50.930;3.140;2022-11-20T11:11:59;6.37;;;4.93;;
18142;SDS011;9197;50.930;3.140;2022-11-20T11:14:26;11.03;;;5.67;;
18142;SDS011;9197;50.930;3.140;2022-11-20T11:16:54;6.23;;;4.63;;
18142;SDS011;9197;50.930;3.140;2022-11-20T11:19:21;9.57;;;5.83;;
18142;SDS011;9197;50.930;3.140;2022-11-20T11:21:51;7.27;;;5.37;;
18142;SDS011;9197;50.930;3.140;2022-11-20T11:24:20;7.23;;;5.77;;
18142;SDS011;9197;50.930;3.140;2022-11-20T11:26:51;6.27;;;5.30;;
18142;SDS011;9197;50.930;3.140;2022-11-20T11:29:21;12.20;;;7.27;;
18142;SDS011;9197;50.930;3.140;2022-11-20T11:31:49;8.03;;;5.37;;
18142;SDS011;9197;50.930;3.140;2022-11-20T11:34:16;7.43;;;5.17;;
18142;SDS011;9197;50.930;3.140;2022-11-20T11:36:49;10.27;;;5.80;;
18142;SDS011;9197;50.930;3.140;2022-11-20T11:39:19;7.30;;;6.33;;
18142;SDS011;9197;50.930;3.140;2022-11-20T11:41:47;8.73;;;5.83;;
18142;SDS011;9197;50.930;3.140;2022-11-20T11:44:15;12.30;;;6.57;;
18142;SDS011;9197;50.930;3.140;2022-11-20T11:47:01;9.40;;;6.43;;
18142;SDS011;9197;50.930;3.140;2022-11-20T11:49:29;9.87;;;6.90;;
18142;SDS011;9197;50.930;3.140;2022-11-20T11:52:02;8.83;;;7.17;;
18142;SDS011;9197;50.930;3.140;2022-11-20T11:54:33;16.83;;;12.40;;
18142;SDS011;9197;50.930;3.140;2022-11-20T11:57:02;9.37;;;8.47;;
18142;SDS011;9197;50.930;3.140;2022-11-20T11:59:45;10.97;;;9.97;;
18142;SDS011;9197;50.930;3.140;2022-11-20T12:02:18;9.00;;;6.80;;
18142;SDS011;9197;50.930;3.140;2022-11-20T12:04:46;9.20;;;7.40;;
18142;SDS011;9197;50.930;3.140;2022-11-20T12:07:19;9.67;;;8.47;;
18142;SDS011;9197;50.930;3.140;2022-11-20T12:09:49;10.13;;;7.73;;
18142;SDS011;9197;50.930;3.140;2022-11-20T12:12:19;9.80;;;6.57;;
18142;SDS011;9197;50.930;3.140;2022-11-20T12:14:47;14.20;;;13.00;;
18142;SDS011;9197;50.930;3.140;2022-11-20T12:17:17;9.33;;;7.77;;
18142;SDS011;9197;50.930;3.140;2022-11-20T12:19:44;7.00;;;6.30;;
18142;SDS011;9197;50.930;3.140;2022-11-20T12:22:13;8.17;;;6.30;;
18142;SDS011;9197;50.930;3.140;2022-11-20T12:24:51;8.30;;;4.90;;
18142;SDS011;9197;50.930;3.140;2022-11-20T12:27:32;9.10;;;8.37;;
18142;SDS011;9197;50.930;3.140;2022-11-20T12:30:02;6.07;;;5.47;;
18142;SDS011;9197;50.930;3.140;2022-11-20T12:32:41;10.40;;;5.93;;
18142;SDS011;9197;50.930;3.140;2022-11-20T12:35:12;6.70;;;5.53;;
18142;SDS011;9197;50.930;3.140;2022-11-20T12:37:44;12.50;;;11.20;;
18142;SDS011;9197;50.930;3.140;2022-11-20T12:40:17;7.03;;;6.33;;
18142;SDS011;9197;50.930;3.140;2022-11-20T12:42:56;10.03;;;8.40;;
18142;SDS011;9197;50.930;3.140;2022-11-20T12:45:48;8.27;;;7.60;;
18142;SDS011;9197;50.930;3.140;2022-11-20T12:48:30;10.07;;;9.17;;
18142;SDS011;9197;50.930;3.140;2022-11-20T12:51:07;9.87;;;9.07;;
18142;SDS011;9197;50.930;3.140;2022-11-20T12:53:37;8.50;;;7.70;;
18142;SDS011;9197;50.930;3.140;2022-11-20T12:56:11;8.70;;;7.90;;
18142;SDS011;9197;50.930;3.140;2022-11-20T12:58:43;6.47;;;5.90;;
18142;SDS011;9197;50.930;3.140;2022-11-20T13:01:16;8.17;;;6.93;;
18142;SDS011;9197;50.930;3.140;2022-11-20T13:04:07;6.93;;;6.10;;
18142;SDS011;9197;50.930;3.140;2022-11-20T13:06:35;8.13;;;7.43;;
18142;SDS011;9197;50.930;3.140;2022-11-20T13:09:04;6.33;;;5.30;;
18142;SDS011;9197;50.930;3.140;2022-11-20T13:11:37;5.37;;;4.77;;
18142;SDS011;9197;50.930;3.140;2022-11-20T13:14:12;4.70;;;3.90;;
18142;SDS011;9197;50.930;3.140;2022-11-20T13:16:45;9.43;;;8.43;;
18142;SDS011;9197;50.930;3.140;2022-11-20T13:19:15;6.57;;;5.77;;
18142;SDS011;9197;50.930;3.140;2022-11-20T13:21:43;8.73;;;5.30;;
18142;SDS011;9197;50.930;3.140;2022-11-20T13:24:20;8.67;;;5.40;;
18142;SDS011;9197;50.930;3.140;2022-11-20T13:27:00;5.93;;;4.40;;
18142;SDS011;9197;50.930;3.140;2022-11-20T13:29:27;5.83;;;4.70;;
18142;SDS011;9197;50.930;3.140;2022-11-20T13:32:02;5.73;;;4.93;;
18142;SDS011;9197;50.930;3.140;2022-11-20T13:34:30;5.40;;;4.90;;
18142;SDS011;9197;50.930;3.140;2022-11-20T13:36:58;4.43;;;4.03;;
18142;SDS011;9197;50.930;3.140;2022-11-20T13:39:29;4.87;;;4.13;;
18142;SDS011;9197;50.930;3.140;2022-11-20T13:41:57;5.77;;;3.43;;
18142;SDS011;9197;50.930;3.140;2022-11-20T13:44:27;5.63;;;4.37;;
18142;SDS011;9197;50.930;3.140;2022-11-20T13:46:55;5.70;;;5.00;;
18142;SDS011;9197;50.930;3.140;2022-11-20T13:49:23;9.80;;;5.07;;
18142;SDS011;9197;50.930;3.140;2022-11-20T13:51:53;7.50;;;6.00;;
18142;SDS011;9197;50.930;3.140;2022-11-20T13:54:40;8.00;;;5.20;;
18142;SDS011;9197;50.930;3.140;2022-11-20T13:57:21;10.03;;;4.17;;
18142;SDS011;9197;50.930;3.140;2022-11-20T13:59:56;11.07;;;5.27;;
18142;SDS011;9197;50.930;3.140;2022-11-20T14:02:25;10.20;;;5.33;;
18142;SDS011;9197;50.930;3.140;2022-11-20T14:04:53;13.13;;;4.47;;
18142;SDS011;9197;50.930;3.140;2022-11-20T14:07:21;6.90;;;3.80;;
18142;SDS011;9197;50.930;3.140;2022-11-20T14:09:51;15.70;;;4.53;;
18142;SDS011;9197;50.930;3.140;2022-11-20T14:12:19;8.73;;;4.13;;
18142;SDS011;9197;50.930;3.140;2022-11-20T14:14:48;7.90;;;3.40;;
18142;SDS011;9197;50.930;3.140;2022-11-20T14:17:19;14.00;;;4.40;;
18142;SDS011;9197;50.930;3.140;2022-11-20T14:19:46;12.93;;;3.43;;
18142;SDS011;9197;50.930;3.140;2022-11-20T14:22:18;10.27;;;3.67;;
18142;SDS011;9197;50.930;3.140;2022-11-20T14:24:46;19.53;;;4.43;;
18142;SDS011;9197;50.930;3.140;2022-11-20T14:27:14;10.43;;;4.67;;
18142;SDS011;9197;50.930;3.140;2022-11-20T14:29:42;15.03;;;4.10;;
18142;SDS011;9197;50.930;3.140;2022-11-20T14:32:10;10.57;;;2.87;;
18142;SDS011;9197;50.930;3.140;2022-11-20T14:34:39;10.33;;;3.57;;
18142;SDS011;9197;50.930;3.140;2022-11-20T14:37:10;9.83;;;3.03;;
18142;SDS011;9197;50.930;3.140;2022-11-20T14:39:40;14.77;;;4.03;;
18142;SDS011;9197;50.930;3.140;2022-11-20T14:42:13;6.67;;;3.03;;
18142;SDS011;9197;50.930;3.140;2022-11-20T14:44:41;9.83;;;3.27;;
18142;SDS011;9197;50.930;3.140;2022-11-20T14:47:10;8.80;;;3.40;;
18142;SDS011;9197;50.930;3.140;2022-11-20T14:49:40;10.73;;;4.17;;
18142;SDS011;9197;50.930;3.140;2022-11-20T14:52:11;9.00;;;3.37;;
18142;SDS011;9197;50.930;3.140;2022-11-20T14:54:43;13.43;;;4.23;;
18142;SDS011;9197;50.930;3.140;2022-11-20T14:57:19;9.30;;;3.67;;